Quebec, Canada
Current Conditions -  °F | °C
As of 9:28 PM on Sunday 23 Nov 2014 (Local Time) from CYQB Reporting Station
Drizzle Drizzle  
Wind Chill: 32°   Ceiling: 400
Heat Index: 36°   Visibility: 0.62mi
Dew Point: 34°   Wind: 5mph
Humidity: 93%   Direction: 50°NE
Pressure: 30.04"   Gusts: NA
Location:  46.81°N, 71.22°W
Report Text: CYQB 240228Z 05004KT 5/8SM R06/3500FT/D -DZ BR OVC004 02/01 A3004 RMK FG3ST5 CIG VRB 2-6 SLP178
Loading
Personal Weather Stations






























Interactive Weather Map New forecast layout! Learn more

10-Day Weather Forecast

Advertisements
Track Severe Weather on mobile